sensor_id;sensor_type;location;lat;lon;timestamp;temperature;humidity
6696;DHT22;3385;48.928;10.330;2023-04-24T00:00:30;8.30;99.90
6696;DHT22;3385;48.928;10.330;2023-04-24T00:02:58;8.10;99.90
6696;DHT22;3385;48.928;10.330;2023-04-24T00:05:24;8.40;99.90
6696;DHT22;3385;48.928;10.330;2023-04-24T00:07:50;8.20;99.90
6696;DHT22;3385;48.928;10.330;2023-04-24T00:10:19;8.20;99.90
6696;DHT22;3385;48.928;10.330;2023-04-24T00:12:44;8.20;99.90
6696;DHT22;3385;48.928;10.330;2023-04-24T00:15:11;8.30;99.90
6696;DHT22;3385;48.928;10.330;2023-04-24T00:17:36;8.30;99.90
6696;DHT22;3385;48.928;10.330;2023-04-24T00:20:03;8.20;99.90
6696;DHT22;3385;48.928;10.330;2023-04-24T00:22:30;8.20;99.90
6696;DHT22;3385;48.928;10.330;2023-04-24T00:24:56;8.20;99.90
6696;DHT22;3385;48.928;10.330;2023-04-24T00:27:22;8.10;99.90
6696;DHT22;3385;48.928;10.330;2023-04-24T00:29:48;8.10;99.90
6696;DHT22;3385;48.928;10.330;2023-04-24T00:32:14;8.10;99.90
6696;DHT22;3385;48.928;10.330;2023-04-24T00:34:40;8.20;99.90
6696;DHT22;3385;48.928;10.330;2023-04-24T00:37:07;8.10;99.90
6696;DHT22;3385;48.928;10.330;2023-04-24T00:39:33;8.10;99.90
6696;DHT22;3385;48.928;10.330;2023-04-24T00:41:59;8.10;99.90
6696;DHT22;3385;48.928;10.330;2023-04-24T00:44:25;8.00;99.90
6696;DHT22;3385;48.928;10.330;2023-04-24T00:46:51;8.20;99.90
6696;DHT22;3385;48.928;10.330;2023-04-24T00:49:23;8.10;99.90
6696;DHT22;3385;48.928;10.330;2023-04-24T00:51:49;8.20;99.90
6696;DHT22;3385;48.928;10.330;2023-04-24T00:54:17;8.00;99.90
6696;DHT22;3385;48.928;10.330;2023-04-24T00:56:43;7.90;99.90
6696;DHT22;3385;48.928;10.330;2023-04-24T00:59:11;8.10;99.90
6696;DHT22;3385;48.928;10.330;2023-04-24T01:01:37;8.30;99.90
6696;DHT22;3385;48.928;10.330;2023-04-24T01:04:03;8.20;99.90
6696;DHT22;3385;48.928;10.330;2023-04-24T01:06:29;8.20;99.90
6696;DHT22;3385;48.928;10.330;2023-04-24T01:08:57;8.20;99.90
6696;DHT22;3385;48.928;10.330;2023-04-24T01:11:24;8.00;99.90
6696;DHT22;3385;48.928;10.330;2023-04-24T01:13:51;8.20;99.90
6696;DHT22;3385;48.928;10.330;2023-04-24T01:16:17;8.10;99.90
6696;DHT22;3385;48.928;10.330;2023-04-24T01:18:43;8.10;99.90
6696;DHT22;3385;48.928;10.330;2023-04-24T01:21:13;8.20;99.90
6696;DHT22;3385;48.928;10.330;2023-04-24T01:23:40;8.00;99.90
6696;DHT22;3385;48.928;10.330;2023-04-24T01:26:06;8.00;99.90
6696;DHT22;3385;48.928;10.330;2023-04-24T01:28:32;8.00;99.90
6696;DHT22;3385;48.928;10.330;2023-04-24T01:30:58;7.90;99.90
6696;DHT22;3385;48.928;10.330;2023-04-24T01:33:24;8.00;99.90
6696;DHT22;3385;48.928;10.330;2023-04-24T01:35:51;8.00;99.90
6696;DHT22;3385;48.928;10.330;2023-04-24T01:38:17;8.00;99.90
6696;DHT22;3385;48.928;10.330;2023-04-24T01:40:43;8.00;99.90
6696;DHT22;3385;48.928;10.330;2023-04-24T01:43:09;8.10;99.90
6696;DHT22;3385;48.928;10.330;2023-04-24T01:45:34;8.00;99.90
6696;DHT22;3385;48.928;10.330;2023-04-24T01:48:00;8.10;99.90
6696;DHT22;3385;48.928;10.330;2023-04-24T01:50:26;8.10;99.90
6696;DHT22;3385;48.928;10.330;2023-04-24T01:52:52;8.10;99.90
6696;DHT22;3385;48.928;10.330;2023-04-24T01:55:18;8.20;99.90
6696;DHT22;3385;48.928;10.330;2023-04-24T01:57:44;8.20;99.90
6696;DHT22;3385;48.928;10.330;2023-04-24T02:00:10;8.10;99.90
6696;DHT22;3385;48.928;10.330;2023-04-24T02:02:38;7.80;99.90
6696;DHT22;3385;48.928;10.330;2023-04-24T02:05:06;8.00;99.90
6696;DHT22;3385;48.928;10.330;2023-04-24T02:07:32;8.00;99.90
6696;DHT22;3385;48.928;10.330;2023-04-24T02:09:58;7.90;99.90
6696;DHT22;3385;48.928;10.330;2023-04-24T02:12:24;7.90;99.90
6696;DHT22;3385;48.928;10.330;2023-04-24T02:14:50;8.00;99.90
6696;DHT22;3385;48.928;10.330;2023-04-24T02:17:16;7.90;99.90
6696;DHT22;3385;48.928;10.330;2023-04-24T02:19:43;7.90;99.90
6696;DHT22;3385;48.928;10.330;2023-04-24T02:22:08;7.90;99.90
6696;DHT22;3385;48.928;10.330;2023-04-24T02:24:34;7.80;99.90
6696;DHT22;3385;48.928;10.330;2023-04-24T02:27:00;7.80;99.90
6696;DHT22;3385;48.928;10.330;2023-04-24T02:29:28;7.80;99.90
6696;DHT22;3385;48.928;10.330;2023-04-24T02:31:54;7.70;99.90
6696;DHT22;3385;48.928;10.330;2023-04-24T02:34:19;7.70;99.90
6696;DHT22;3385;48.928;10.330;2023-04-24T02:36:45;7.70;99.90
6696;DHT22;3385;48.928;10.330;2023-04-24T02:39:11;7.60;99.90
6696;DHT22;3385;48.928;10.330;2023-04-24T02:41:36;7.50;99.90
6696;DHT22;3385;48.928;10.330;2023-04-24T02:44:02;7.90;99.90
6696;DHT22;3385;48.928;10.330;2023-04-24T02:46:28;7.80;99.90
6696;DHT22;3385;48.928;10.330;2023-04-24T02:48:53;7.60;99.90
6696;DHT22;3385;48.928;10.330;2023-04-24T02:51:19;7.70;99.90
6696;DHT22;3385;48.928;10.330;2023-04-24T02:53:45;7.90;99.90
6696;DHT22;3385;48.928;10.330;2023-04-24T02:56:11;7.90;99.90
6696;DHT22;3385;48.928;10.330;2023-04-24T02:58:39;8.00;99.90
6696;DHT22;3385;48.928;10.330;2023-04-24T03:01:05;8.00;99.90
6696;DHT22;3385;48.928;10.330;2023-04-24T03:03:31;7.70;99.90
6696;DHT22;3385;48.928;10.330;2023-04-24T03:05:57;7.90;99.90
6696;DHT22;3385;48.928;10.330;2023-04-24T03:08:23;7.90;99.90
6696;DHT22;3385;48.928;10.330;2023-04-24T03:10:49;7.80;99.90
6696;DHT22;3385;48.928;10.330;2023-04-24T03:13:15;8.00;99.90
6696;DHT22;3385;48.928;10.330;2023-04-24T03:15:41;7.80;99.90
6696;DHT22;3385;48.928;10.330;2023-04-24T03:18:07;7.70;99.90
6696;DHT22;3385;48.928;10.330;2023-04-24T03:20:33;7.80;99.90
6696;DHT22;3385;48.928;10.330;2023-04-24T03:22:58;7.70;99.90
6696;DHT22;3385;48.928;10.330;2023-04-24T03:25:24;7.60;99.90
6696;DHT22;3385;48.928;10.330;2023-04-24T03:27:50;7.60;99.90
6696;DHT22;3385;48.928;10.330;2023-04-24T03:30:16;7.60;99.90
6696;DHT22;3385;48.928;10.330;2023-04-24T03:32:41;7.50;99.90
6696;DHT22;3385;48.928;10.330;2023-04-24T03:35:07;7.50;99.90
6696;DHT22;3385;48.928;10.330;2023-04-24T03:37:34;7.50;99.90
6696;DHT22;3385;48.928;10.330;2023-04-24T03:40:01;7.50;99.90
6696;DHT22;3385;48.928;10.330;2023-04-24T03:42:26;7.40;99.90
6696;DHT22;3385;48.928;10.330;2023-04-24T03:44:52;7.50;99.90
6696;DHT22;3385;48.928;10.330;2023-04-24T03:47:18;7.50;99.90
6696;DHT22;3385;48.928;10.330;2023-04-24T03:49:44;7.70;99.90
6696;DHT22;3385;48.928;10.330;2023-04-24T03:52:09;7.80;99.90
6696;DHT22;3385;48.928;10.330;2023-04-24T03:54:35;7.80;99.90
6696;DHT22;3385;48.928;10.330;2023-04-24T03:57:01;7.90;99.90
6696;DHT22;3385;48.928;10.330;2023-04-24T03:59:27;7.80;99.90
6696;DHT22;3385;48.928;10.330;2023-04-24T04:01:52;7.60;99.90
6696;DHT22;3385;48.928;10.330;2023-04-24T04:04:18;7.70;99.90
6696;DHT22;3385;48.928;10.330;2023-04-24T04:06:44;7.90;99.90
6696;DHT22;3385;48.928;10.330;2023-04-24T04:09:10;7.90;99.90
6696;DHT22;3385;48.928;10.330;2023-04-24T04:11:36;7.90;99.90
6696;DHT22;3385;48.928;10.330;2023-04-24T04:14:02;8.10;99.90
6696;DHT22;3385;48.928;10.330;2023-04-24T04:16:28;8.20;99.90
6696;DHT22;3385;48.928;10.330;2023-04-24T04:18:54;8.30;99.90
6696;DHT22;3385;48.928;10.330;2023-04-24T04:21:19;8.30;99.90
6696;DHT22;3385;48.928;10.330;2023-04-24T04:23:45;8.20;99.90
6696;DHT22;3385;48.928;10.330;2023-04-24T04:26:11;8.80;99.90
6696;DHT22;3385;48.928;10.330;2023-04-24T04:28:38;8.40;99.90
6696;DHT22;3385;48.928;10.330;2023-04-24T04:31:05;8.80;99.90
6696;DHT22;3385;48.928;10.330;2023-04-24T04:33:30;8.50;99.90
6696;DHT22;3385;48.928;10.330;2023-04-24T04:35:57;8.50;99.90
6696;DHT22;3385;48.928;10.330;2023-04-24T04:38:24;8.60;99.90
6696;DHT22;3385;48.928;10.330;2023-04-24T04:40:52;8.60;99.90
6696;DHT22;3385;48.928;10.330;2023-04-24T04:43:17;8.70;99.90
6696;DHT22;3385;48.928;10.330;2023-04-24T04:45:43;8.40;99.90
6696;DHT22;3385;48.928;10.330;2023-04-24T04:48:10;8.70;99.90
6696;DHT22;3385;48.928;10.330;2023-04-24T04:50:38;8.60;99.90
6696;DHT22;3385;48.928;10.330;2023-04-24T04:53:04;8.60;99.90
6696;DHT22;3385;48.928;10.330;2023-04-24T04:55:31;8.70;99.90
6696;DHT22;3385;48.928;10.330;2023-04-24T04:57:56;8.80;99.90
6696;DHT22;3385;48.928;10.330;2023-04-24T05:00:22;8.60;99.90
6696;DHT22;3385;48.928;10.330;2023-04-24T05:02:51;8.80;99.90
6696;DHT22;3385;48.928;10.330;2023-04-24T05:05:17;8.70;99.90
6696;DHT22;3385;48.928;10.330;2023-04-24T05:07:43;8.80;99.90
6696;DHT22;3385;48.928;10.330;2023-04-24T05:10:18;8.90;99.90
6696;DHT22;3385;48.928;10.330;2023-04-24T05:12:43;9.00;99.90
6696;DHT22;3385;48.928;10.330;2023-04-24T05:15:09;9.00;99.90
6696;DHT22;3385;48.928;10.330;2023-04-24T05:17:36;9.10;99.90
6696;DHT22;3385;48.928;10.330;2023-04-24T05:20:02;9.20;99.90
6696;DHT22;3385;48.928;10.330;2023-04-24T05:22:31;9.20;99.90
6696;DHT22;3385;48.928;10.330;2023-04-24T05:24:56;9.40;99.90
6696;DHT22;3385;48.928;10.330;2023-04-24T05:27:22;9.20;99.90
6696;DHT22;3385;48.928;10.330;2023-04-24T05:29:48;9.30;99.90
6696;DHT22;3385;48.928;10.330;2023-04-24T05:32:14;9.30;99.90
6696;DHT22;3385;48.928;10.330;2023-04-24T05:34:39;9.10;99.90
6696;DHT22;3385;48.928;10.330;2023-04-24T05:37:05;9.20;99.90
6696;DHT22;3385;48.928;10.330;2023-04-24T05:39:34;9.30;99.90
6696;DHT22;3385;48.928;10.330;2023-04-24T05:42:00;9.30;99.90
6696;DHT22;3385;48.928;10.330;2023-04-24T05:44:27;9.30;99.90
6696;DHT22;3385;48.928;10.330;2023-04-24T05:46:53;9.40;99.90
6696;DHT22;3385;48.928;10.330;2023-04-24T05:49:20;9.40;99.90
6696;DHT22;3385;48.928;10.330;2023-04-24T05:51:46;9.70;99.90
6696;DHT22;3385;48.928;10.330;2023-04-24T05:54:11;9.50;99.90
6696;DHT22;3385;48.928;10.330;2023-04-24T05:56:38;9.30;99.90
6696;DHT22;3385;48.928;10.330;2023-04-24T05:59:03;9.00;99.90
6696;DHT22;3385;48.928;10.330;2023-04-24T06:01:29;8.70;99.90
6696;DHT22;3385;48.928;10.330;2023-04-24T06:03:56;8.40;99.90
6696;DHT22;3385;48.928;10.330;2023-04-24T06:06:23;8.30;99.90
6696;DHT22;3385;48.928;10.330;2023-04-24T06:08:49;8.20;99.90
6696;DHT22;3385;48.928;10.330;2023-04-24T06:11:15;8.10;99.90
6696;DHT22;3385;48.928;10.330;2023-04-24T06:13:41;8.00;99.90
6696;DHT22;3385;48.928;10.330;2023-04-24T06:16:07;8.10;99.90
6696;DHT22;3385;48.928;10.330;2023-04-24T06:18:33;8.00;99.90
6696;DHT22;3385;48.928;10.330;2023-04-24T06:20:59;7.90;99.90
6696;DHT22;3385;48.928;10.330;2023-04-24T06:23:24;7.90;99.90
6696;DHT22;3385;48.928;10.330;2023-04-24T06:25:51;8.30;99.90
6696;DHT22;3385;48.928;10.330;2023-04-24T06:28:17;8.00;99.90
6696;DHT22;3385;48.928;10.330;2023-04-24T06:30:42;8.10;99.90
6696;DHT22;3385;48.928;10.330;2023-04-24T06:33:08;8.10;99.90
6696;DHT22;3385;48.928;10.330;2023-04-24T06:35:34;8.20;99.90
6696;DHT22;3385;48.928;10.330;2023-04-24T06:38:00;8.20;99.90
6696;DHT22;3385;48.928;10.330;2023-04-24T06:40:26;8.30;99.90
6696;DHT22;3385;48.928;10.330;2023-04-24T06:42:52;8.30;99.90
6696;DHT22;3385;48.928;10.330;2023-04-24T06:45:18;8.30;99.90
6696;DHT22;3385;48.928;10.330;2023-04-24T06:47:43;8.30;99.90
6696;DHT22;3385;48.928;10.330;2023-04-24T06:50:10;8.40;99.90
6696;DHT22;3385;48.928;10.330;2023-04-24T06:52:36;8.50;99.90
6696;DHT22;3385;48.928;10.330;2023-04-24T06:55:03;8.50;99.90
6696;DHT22;3385;48.928;10.330;2023-04-24T06:57:29;8.50;99.90
6696;DHT22;3385;48.928;10.330;2023-04-24T06:59:55;8.50;99.90
6696;DHT22;3385;48.928;10.330;2023-04-24T07:02:21;8.30;99.90
6696;DHT22;3385;48.928;10.330;2023-04-24T07:04:47;8.50;99.90
6696;DHT22;3385;48.928;10.330;2023-04-24T07:07:13;8.60;99.90
6696;DHT22;3385;48.928;10.330;2023-04-24T07:09:40;8.80;99.90
6696;DHT22;3385;48.928;10.330;2023-04-24T07:12:11;8.60;99.90
6696;DHT22;3385;48.928;10.330;2023-04-24T07:14:37;8.60;99.90
6696;DHT22;3385;48.928;10.330;2023-04-24T07:17:06;8.60;99.90
6696;DHT22;3385;48.928;10.330;2023-04-24T07:19:35;8.70;99.90
6696;DHT22;3385;48.928;10.330;2023-04-24T07:22:01;8.30;99.90
6696;DHT22;3385;48.928;10.330;2023-04-24T07:24:28;8.70;99.90
6696;DHT22;3385;48.928;10.330;2023-04-24T07:26:54;8.90;99.90
6696;DHT22;3385;48.928;10.330;2023-04-24T07:29:20;9.00;99.90
6696;DHT22;3385;48.928;10.330;2023-04-24T07:31:46;9.00;99.90
6696;DHT22;3385;48.928;10.330;2023-04-24T07:34:12;9.20;99.90
6696;DHT22;3385;48.928;10.330;2023-04-24T07:36:38;9.10;99.90
6696;DHT22;3385;48.928;10.330;2023-04-24T07:39:04;9.10;99.90
6696;DHT22;3385;48.928;10.330;2023-04-24T07:41:31;9.10;99.90
6696;DHT22;3385;48.928;10.330;2023-04-24T07:43:57;9.10;99.90
6696;DHT22;3385;48.928;10.330;2023-04-24T07:46:23;9.10;99.90
6696;DHT22;3385;48.928;10.330;2023-04-24T07:48:50;9.20;99.90
6696;DHT22;3385;48.928;10.330;2023-04-24T07:51:16;9.40;99.90
6696;DHT22;3385;48.928;10.330;2023-04-24T07:53:43;9.30;99.90
6696;DHT22;3385;48.928;10.330;2023-04-24T07:56:09;9.30;99.90
6696;DHT22;3385;48.928;10.330;2023-04-24T07:58:35;9.50;99.90
6696;DHT22;3385;48.928;10.330;2023-04-24T08:01:00;9.40;99.90
6696;DHT22;3385;48.928;10.330;2023-04-24T08:03:26;9.30;99.90
6696;DHT22;3385;48.928;10.330;2023-04-24T08:05:52;9.30;99.90
6696;DHT22;3385;48.928;10.330;2023-04-24T08:08:22;9.30;99.90
6696;DHT22;3385;48.928;10.330;2023-04-24T08:10:48;9.50;99.90
6696;DHT22;3385;48.928;10.330;2023-04-24T08:13:14;9.70;99.90
6696;DHT22;3385;48.928;10.330;2023-04-24T08:15:40;10.20;99.90
6696;DHT22;3385;48.928;10.330;2023-04-24T08:18:06;10.40;99.90
6696;DHT22;3385;48.928;10.330;2023-04-24T08:20:32;10.40;99.90
6696;DHT22;3385;48.928;10.330;2023-04-24T08:22:58;10.50;99.90
6696;DHT22;3385;48.928;10.330;2023-04-24T08:25:23;10.30;99.90
6696;DHT22;3385;48.928;10.330;2023-04-24T08:27:50;10.30;99.90
6696;DHT22;3385;48.928;10.330;2023-04-24T08:30:17;10.20;99.90
6696;DHT22;3385;48.928;10.330;2023-04-24T08:32:42;10.20;99.90
6696;DHT22;3385;48.928;10.330;2023-04-24T08:35:08;10.40;99.90
6696;DHT22;3385;48.928;10.330;2023-04-24T08:37:35;10.60;99.90
6696;DHT22;3385;48.928;10.330;2023-04-24T08:40:35;10.60;99.90
6696;DHT22;3385;48.928;10.330;2023-04-24T08:42:56;10.60;99.90
6696;DHT22;3385;48.928;10.330;2023-04-24T08:45:23;10.50;99.90
6696;DHT22;3385;48.928;10.330;2023-04-24T08:47:49;10.70;99.90
6696;DHT22;3385;48.928;10.330;2023-04-24T08:50:15;10.70;99.90
6696;DHT22;3385;48.928;10.330;2023-04-24T08:52:42;10.80;99.90
6696;DHT22;3385;48.928;10.330;2023-04-24T08:55:08;10.60;99.90
6696;DHT22;3385;48.928;10.330;2023-04-24T08:57:35;10.50;99.90
6696;DHT22;3385;48.928;10.330;2023-04-24T09:00:02;10.40;99.90
6696;DHT22;3385;48.928;10.330;2023-04-24T09:02:28;9.90;99.90
6696;DHT22;3385;48.928;10.330;2023-04-24T09:04:56;9.40;99.90
6696;DHT22;3385;48.928;10.330;2023-04-24T09:07:23;9.50;99.90
6696;DHT22;3385;48.928;10.330;2023-04-24T09:09:51;9.30;99.90
6696;DHT22;3385;48.928;10.330;2023-04-24T09:12:17;7.50;99.90
6696;DHT22;3385;48.928;10.330;2023-04-24T09:14:45;9.20;99.90
6696;DHT22;3385;48.928;10.330;2023-04-24T09:17:11;9.10;99.90
6696;DHT22;3385;48.928;10.330;2023-04-24T09:19:37;9.20;99.90
6696;DHT22;3385;48.928;10.330;2023-04-24T09:22:07;9.50;99.90
6696;DHT22;3385;48.928;10.330;2023-04-24T09:24:34;9.40;99.90
6696;DHT22;3385;48.928;10.330;2023-04-24T09:27:01;9.60;99.90
6696;DHT22;3385;48.928;10.330;2023-04-24T09:29:27;9.70;99.90
6696;DHT22;3385;48.928;10.330;2023-04-24T09:31:54;9.90;99.90
6696;DHT22;3385;48.928;10.330;2023-04-24T09:34:25;10.30;99.90
6696;DHT22;3385;48.928;10.330;2023-04-24T09:36:51;10.60;99.90
6696;DHT22;3385;48.928;10.330;2023-04-24T09:39:18;10.50;99.90
6696;DHT22;3385;48.928;10.330;2023-04-24T09:44:21;10.80;99.90
6696;DHT22;3385;48.928;10.330;2023-04-24T09:46:58;11.10;99.90
6696;DHT22;3385;48.928;10.330;2023-04-24T09:49:27;11.30;99.90
6696;DHT22;3385;48.928;10.330;2023-04-24T09:52:07;11.40;99.90
6696;DHT22;3385;48.928;10.330;2023-04-24T09:54:33;11.80;99.90
6696;DHT22;3385;48.928;10.330;2023-04-24T09:57:02;11.80;99.90
6696;DHT22;3385;48.928;10.330;2023-04-24T09:59:28;11.80;99.90
6696;DHT22;3385;48.928;10.330;2023-04-24T10:01:54;12.20;99.90
6696;DHT22;3385;48.928;10.330;2023-04-24T10:04:22;12.40;99.90
6696;DHT22;3385;48.928;10.330;2023-04-24T10:06:50;12.30;99.90
6696;DHT22;3385;48.928;10.330;2023-04-24T10:09:17;11.90;99.90
6696;DHT22;3385;48.928;10.330;2023-04-24T10:11:47;11.50;99.90
6696;DHT22;3385;48.928;10.330;2023-04-24T10:14:18;11.50;99.90
6696;DHT22;3385;48.928;10.330;2023-04-24T10:16:45;11.40;99.90
6696;DHT22;3385;48.928;10.330;2023-04-24T10:19:12;14.60;99.90
6696;DHT22;3385;48.928;10.330;2023-04-24T10:21:40;12.20;99.90
6696;DHT22;3385;48.928;10.330;2023-04-24T10:24:15;12.40;99.90
6696;DHT22;3385;48.928;10.330;2023-04-24T10:26:41;12.50;99.90
6696;DHT22;3385;48.928;10.330;2023-04-24T10:29:07;12.60;99.90
6696;DHT22;3385;48.928;10.330;2023-04-24T10:31:36;12.40;99.90
6696;DHT22;3385;48.928;10.330;2023-04-24T10:34:04;12.50;99.90
6696;DHT22;3385;48.928;10.330;2023-04-24T10:36:31;12.70;99.90
6696;DHT22;3385;48.928;10.330;2023-04-24T10:39:00;12.80;99.90
6696;DHT22;3385;48.928;10.330;2023-04-24T10:41:26;13.10;99.90
6696;DHT22;3385;48.928;10.330;2023-04-24T10:44:18;13.10;99.90
6696;DHT22;3385;48.928;10.330;2023-04-24T10:46:53;13.30;99.90
6696;DHT22;3385;48.928;10.330;2023-04-24T10:49:31;13.50;99.90
6696;DHT22;3385;48.928;10.330;2023-04-24T10:52:02;13.40;99.90
6696;DHT22;3385;48.928;10.330;2023-04-24T10:54:34;13.40;99.90
6696;DHT22;3385;48.928;10.330;2023-04-24T11:00:10;14.30;99.90
6696;DHT22;3385;48.928;10.330;2023-04-24T11:02:36;14.60;99.90
6696;DHT22;3385;48.928;10.330;2023-04-24T11:05:07;13.70;99.90
6696;DHT22;3385;48.928;10.330;2023-04-24T11:08:10;12.90;99.90
6696;DHT22;3385;48.928;10.330;2023-04-24T11:10:47;12.70;99.90
6696;DHT22;3385;48.928;10.330;2023-04-24T11:13:21;12.60;99.90
6696;DHT22;3385;48.928;10.330;2023-04-24T11:19:06;13.20;99.90
6696;DHT22;3385;48.928;10.330;2023-04-24T11:24:38;13.90;99.90
6696;DHT22;3385;48.928;10.330;2023-04-24T11:32:40;13.90;99.90
6696;DHT22;3385;48.928;10.330;2023-04-24T11:35:15;13.10;99.90
6696;DHT22;3385;48.928;10.330;2023-04-24T11:37:50;12.90;99.90
6696;DHT22;3385;48.928;10.330;2023-04-24T11:40:18;12.30;99.90
6696;DHT22;3385;48.928;10.330;2023-04-24T11:42:50;12.50;99.90
6696;DHT22;3385;48.928;10.330;2023-04-24T11:45:21;12.30;99.90
6696;DHT22;3385;48.928;10.330;2023-04-24T11:47:48;12.40;99.90
6696;DHT22;3385;48.928;10.330;2023-04-24T11:50:15;12.60;99.90
6696;DHT22;3385;48.928;10.330;2023-04-24T11:52:43;12.70;99.90
6696;DHT22;3385;48.928;10.330;2023-04-24T11:57:55;13.60;99.90
6696;DHT22;3385;48.928;10.330;2023-04-24T12:00:31;14.30;99.90
6696;DHT22;3385;48.928;10.330;2023-04-24T12:03:08;14.10;99.90
6696;DHT22;3385;48.928;10.330;2023-04-24T12:05:34;14.10;99.90
6696;DHT22;3385;48.928;10.330;2023-04-24T12:08:02;13.90;99.90
6696;DHT22;3385;48.928;10.330;2023-04-24T12:10:30;13.60;99.90
6696;DHT22;3385;48.928;10.330;2023-04-24T12:12:57;13.50;99.90
6696;DHT22;3385;48.928;10.330;2023-04-24T12:15:23;13.50;99.90
6696;DHT22;3385;48.928;10.330;2023-04-24T12:17:54;13.60;99.90
6696;DHT22;3385;48.928;10.330;2023-04-24T12:20:31;13.40;99.90
6696;DHT22;3385;48.928;10.330;2023-04-24T12:22:59;13.10;99.90
6696;DHT22;3385;48.928;10.330;2023-04-24T12:25:27;12.90;99.90
6696;DHT22;3385;48.928;10.330;2023-04-24T12:27:55;13.10;99.90
6696;DHT22;3385;48.928;10.330;2023-04-24T12:30:41;14.20;99.90
6696;DHT22;3385;48.928;10.330;2023-04-24T12:33:07;16.20;99.90
6696;DHT22;3385;48.928;10.330;2023-04-24T12:35:33;16.80;99.90
6696;DHT22;3385;48.928;10.330;2023-04-24T12:38:12;15.90;99.90
6696;DHT22;3385;48.928;10.330;2023-04-24T12:40:39;15.60;99.90
6696;DHT22;3385;48.928;10.330;2023-04-24T12:43:15;16.40;99.90
6696;DHT22;3385;48.928;10.330;2023-04-24T12:45:41;17.10;99.90
6696;DHT22;3385;48.928;10.330;2023-04-24T12:48:06;18.00;99.90
6696;DHT22;3385;48.928;10.330;2023-04-24T12:50:32;18.40;99.90
6696;DHT22;3385;48.928;10.330;2023-04-24T12:52:59;17.90;99.90
6696;DHT22;3385;48.928;10.330;2023-04-24T12:55:25;16.70;99.90
6696;DHT22;3385;48.928;10.330;2023-04-24T12:57:51;15.00;99.90
6696;DHT22;3385;48.928;10.330;2023-04-24T13:00:17;14.10;99.90
6696;DHT22;3385;48.928;10.330;2023-04-24T13:02:43;13.40;99.90
6696;DHT22;3385;48.928;10.330;2023-04-24T13:05:09;13.40;99.90
6696;DHT22;3385;48.928;10.330;2023-04-24T13:07:36;13.80;99.90
6696;DHT22;3385;48.928;10.330;2023-04-24T13:10:02;14.50;99.90
6696;DHT22;3385;48.928;10.330;2023-04-24T13:12:28;14.90;99.90
6696;DHT22;3385;48.928;10.330;2023-04-24T13:14:54;14.80;99.90
6696;DHT22;3385;48.928;10.330;2023-04-24T13:17:20;14.40;99.90
6696;DHT22;3385;48.928;10.330;2023-04-24T13:19:45;13.90;99.90
6696;DHT22;3385;48.928;10.330;2023-04-24T13:22:12;13.80;99.90
6696;DHT22;3385;48.928;10.330;2023-04-24T13:24:38;13.20;99.90
6696;DHT22;3385;48.928;10.330;2023-04-24T13:27:06;13.10;99.90
6696;DHT22;3385;48.928;10.330;2023-04-24T13:29:32;13.10;99.90
6696;DHT22;3385;48.928;10.330;2023-04-24T13:31:58;13.00;99.90
6696;DHT22;3385;48.928;10.330;2023-04-24T13:34:24;12.40;99.90
6696;DHT22;3385;48.928;10.330;2023-04-24T13:36:55;12.20;99.90
6696;DHT22;3385;48.928;10.330;2023-04-24T13:39:22;11.90;99.90
6696;DHT22;3385;48.928;10.330;2023-04-24T13:41:48;12.00;99.90
6696;DHT22;3385;48.928;10.330;2023-04-24T13:44:15;12.00;99.90
6696;DHT22;3385;48.928;10.330;2023-04-24T13:46:42;12.20;99.90
6696;DHT22;3385;48.928;10.330;2023-04-24T13:49:10;12.80;99.90
6696;DHT22;3385;48.928;10.330;2023-04-24T13:51:35;13.10;99.90
6696;DHT22;3385;48.928;10.330;2023-04-24T13:54:01;13.30;99.90
6696;DHT22;3385;48.928;10.330;2023-04-24T13:56:27;14.10;99.90
6696;DHT22;3385;48.928;10.330;2023-04-24T13:58:52;14.10;99.90
6696;DHT22;3385;48.928;10.330;2023-04-24T14:01:19;13.90;99.90
6696;DHT22;3385;48.928;10.330;2023-04-24T14:03:46;14.40;99.90
6696;DHT22;3385;48.928;10.330;2023-04-24T14:06:12;14.10;99.90
6696;DHT22;3385;48.928;10.330;2023-04-24T14:08:38;13.50;99.90
6696;DHT22;3385;48.928;10.330;2023-04-24T14:11:04;13.00;99.90
6696;DHT22;3385;48.928;10.330;2023-04-24T14:13:29;12.20;99.90
6696;DHT22;3385;48.928;10.330;2023-04-24T14:15:55;11.80;99.90
6696;DHT22;3385;48.928;10.330;2023-04-24T14:18:21;11.60;99.90
6696;DHT22;3385;48.928;10.330;2023-04-24T14:20:47;11.80;99.90
6696;DHT22;3385;48.928;10.330;2023-04-24T14:23:12;11.90;99.90
6696;DHT22;3385;48.928;10.330;2023-04-24T14:25:38;12.10;99.90
6696;DHT22;3385;48.928;10.330;2023-04-24T14:28:05;12.10;99.90
6696;DHT22;3385;48.928;10.330;2023-04-24T14:30:31;12.70;99.90
6696;DHT22;3385;48.928;10.330;2023-04-24T14:32:57;14.80;99.90
6696;DHT22;3385;48.928;10.330;2023-04-24T14:35:30;17.90;99.90
6696;DHT22;3385;48.928;10.330;2023-04-24T14:37:58;17.90;99.90
6696;DHT22;3385;48.928;10.330;2023-04-24T14:40:24;18.70;99.90
6696;DHT22;3385;48.928;10.330;2023-04-24T14:42:50;17.60;99.90
6696;DHT22;3385;48.928;10.330;2023-04-24T14:45:16;15.50;99.90
6696;DHT22;3385;48.928;10.330;2023-04-24T14:47:41;13.90;99.90
6696;DHT22;3385;48.928;10.330;2023-04-24T14:50:07;12.90;99.90
6696;DHT22;3385;48.928;10.330;2023-04-24T14:52:33;12.50;99.90
6696;DHT22;3385;48.928;10.330;2023-04-24T14:55:00;11.90;99.90
6696;DHT22;3385;48.928;10.330;2023-04-24T14:57:26;11.70;99.90
6696;DHT22;3385;48.928;10.330;2023-04-24T14:59:51;11.90;99.90
6696;DHT22;3385;48.928;10.330;2023-04-24T15:02:17;11.90;99.90
6696;DHT22;3385;48.928;10.330;2023-04-24T15:04:43;11.50;99.90
6696;DHT22;3385;48.928;10.330;2023-04-24T15:07:09;11.40;99.90
6696;DHT22;3385;48.928;10.330;2023-04-24T15:09:34;11.20;99.90
6696;DHT22;3385;48.928;10.330;2023-04-24T15:12:00;10.90;99.90
6696;DHT22;3385;48.928;10.330;2023-04-24T15:14:28;11.20;99.90
6696;DHT22;3385;48.928;10.330;2023-04-24T15:16:54;11.30;99.90
6696;DHT22;3385;48.928;10.330;2023-04-24T15:19:19;11.20;99.90
6696;DHT22;3385;48.928;10.330;2023-04-24T15:21:45;11.30;99.90
6696;DHT22;3385;48.928;10.330;2023-04-24T15:24:11;11.10;99.90
6696;DHT22;3385;48.928;10.330;2023-04-24T15:26:37;11.00;99.90
6696;DHT22;3385;48.928;10.330;2023-04-24T15:29:02;11.90;99.90
6696;DHT22;3385;48.928;10.330;2023-04-24T15:31:28;13.60;99.90
6696;DHT22;3385;48.928;10.330;2023-04-24T15:33:54;13.50;99.90
6696;DHT22;3385;48.928;10.330;2023-04-24T15:36:20;13.00;99.90
6696;DHT22;3385;48.928;10.330;2023-04-24T15:38:47;12.30;99.90
6696;DHT22;3385;48.928;10.330;2023-04-24T15:41:13;11.50;99.90
6696;DHT22;3385;48.928;10.330;2023-04-24T15:43:38;11.30;99.90
6696;DHT22;3385;48.928;10.330;2023-04-24T15:46:07;11.00;99.90
6696;DHT22;3385;48.928;10.330;2023-04-24T15:48:32;10.70;99.90
6696;DHT22;3385;48.928;10.330;2023-04-24T15:50:58;12.30;99.90
6696;DHT22;3385;48.928;10.330;2023-04-24T15:53:24;13.50;99.90
6696;DHT22;3385;48.928;10.330;2023-04-24T15:55:51;13.90;99.90
6696;DHT22;3385;48.928;10.330;2023-04-24T15:58:18;14.20;99.90
6696;DHT22;3385;48.928;10.330;2023-04-24T16:00:44;15.20;99.90
6696;DHT22;3385;48.928;10.330;2023-04-24T16:03:11;14.80;99.90
6696;DHT22;3385;48.928;10.330;2023-04-24T16:05:36;14.90;99.90
6696;DHT22;3385;48.928;10.330;2023-04-24T16:08:02;15.60;99.90
6696;DHT22;3385;48.928;10.330;2023-04-24T16:10:28;16.10;99.90
6696;DHT22;3385;48.928;10.330;2023-04-24T16:12:54;15.20;99.90